createdAt,value
2024-02-11T00:02:18.766Z,17.72
2024-02-11T00:06:31.519Z,17.83
2024-02-11T00:10:43.986Z,17.73
2024-02-11T00:14:57.460Z,17.80
2024-02-11T00:19:10.156Z,17.83
2024-02-11T00:23:26.101Z,17.70
2024-02-11T00:27:50.497Z,17.79
2024-02-11T00:32:02.905Z,17.97
2024-02-11T00:36:17.566Z,17.85
2024-02-11T00:40:30.002Z,17.82
2024-02-11T00:44:43.535Z,17.67
2024-02-11T00:48:55.926Z,17.62
2024-02-11T00:53:08.369Z,17.67
2024-02-11T00:57:21.681Z,17.56
2024-02-11T01:01:34.076Z,17.46
2024-02-11T01:05:46.934Z,17.40
2024-02-11T01:09:59.627Z,17.29
2024-02-11T01:14:12.318Z,17.38
2024-02-11T01:18:24.734Z,17.26
2024-02-11T01:22:43.774Z,17.26
2024-02-11T01:26:58.315Z,17.30
2024-02-11T01:31:10.706Z,17.00
2024-02-11T01:35:23.221Z,16.39
2024-02-11T01:39:36.237Z,16.42
2024-02-11T01:43:48.690Z,16.43
2024-02-11T01:48:01.136Z,15.97
2024-02-11T01:52:14.950Z,15.40
2024-02-11T01:56:27.442Z,15.52
2024-02-11T02:00:39.949Z,15.06
2024-02-11T02:04:53.738Z,14.16
2024-02-11T02:09:06.232Z,14.66
2024-02-11T02:13:20.166Z,14.57
2024-02-11T02:17:32.593Z,14.45
2024-02-11T02:21:53.148Z,14.49
2024-02-11T02:26:10.196Z,14.87
2024-02-11T02:30:23.966Z,15.03
2024-02-11T02:34:36.355Z,14.71
2024-02-11T02:38:49.062Z,14.30
2024-02-11T02:43:08.507Z,14.14
2024-02-11T02:47:20.996Z,14.01
2024-02-11T02:51:33.555Z,14.13
2024-02-11T02:55:45.892Z,14.01
2024-02-11T02:59:59.482Z,14.04
2024-02-11T03:04:13.465Z,14.16
2024-02-11T03:08:27.276Z,14.21
2024-02-11T03:12:39.648Z,14.15
2024-02-11T03:16:52.044Z,14.63
2024-02-11T03:21:04.685Z,14.48
2024-02-11T03:25:17.224Z,14.88
2024-02-11T03:29:29.529Z,15.01
2024-02-11T03:33:42.044Z,15.02
2024-02-11T03:37:54.841Z,15.10
2024-02-11T03:42:07.198Z,15.28
2024-02-11T03:46:23.827Z,15.19
2024-02-11T03:50:36.166Z,15.20
2024-02-11T03:54:48.633Z,15.22
2024-02-11T03:59:01.450Z,15.38
2024-02-11T04:03:14.535Z,15.25
2024-02-11T04:07:27.324Z,15.38
2024-02-11T04:11:39.720Z,15.27
2024-02-11T04:15:57.791Z,15.52
2024-02-11T04:20:16.813Z,15.36
2024-02-11T04:24:29.938Z,15.44
2024-02-11T04:28:42.854Z,15.46
2024-02-11T04:32:55.588Z,15.61
2024-02-11T04:37:08.109Z,15.64
2024-02-11T04:41:20.664Z,15.66
2024-02-11T04:45:33.130Z,16.02
2024-02-11T04:49:45.915Z,16.09
2024-02-11T04:53:59.068Z,16.10
2024-02-11T04:58:17.566Z,15.91
2024-02-11T05:02:31.636Z,16.16
2024-02-11T05:06:44.826Z,16.23
2024-02-11T05:10:57.909Z,16.36
2024-02-11T05:15:10.533Z,16.21
2024-02-11T05:19:22.946Z,16.27
2024-02-11T05:23:35.249Z,16.10
2024-02-11T05:27:58.417Z,16.02
2024-02-11T05:32:13.164Z,16.30
2024-02-11T05:36:25.669Z,16.27
2024-02-11T05:40:47.143Z,16.24
2024-02-11T05:44:59.611Z,16.32
2024-02-11T05:49:13.254Z,16.38
2024-02-11T05:53:25.659Z,16.40
2024-02-11T05:57:40.424Z,16.24
2024-02-11T06:01:53.115Z,16.22
2024-02-11T06:06:08.309Z,16.16
2024-02-11T06:10:21.664Z,16.30
2024-02-11T06:14:35.330Z,16.30
2024-02-11T06:18:47.712Z,16.25
2024-02-11T06:23:00.112Z,16.38
2024-02-11T06:27:13.614Z,16.40
2024-02-11T06:31:26.481Z,16.37
2024-02-11T06:35:38.861Z,16.53
2024-02-11T06:39:53.017Z,16.72
2024-02-11T06:44:07.654Z,16.59
2024-02-11T06:48:20.686Z,16.90
2024-02-11T06:52:34.292Z,16.98
2024-02-11T06:56:48.845Z,16.90
2024-02-11T07:01:01.301Z,17.13
2024-02-11T07:05:13.754Z,17.14
2024-02-11T07:09:26.133Z,17.34
2024-02-11T07:13:42.536Z,17.54
2024-02-11T07:17:55.474Z,17.58
2024-02-11T07:22:07.960Z,17.60
2024-02-11T07:26:20.442Z,17.71
2024-02-11T07:30:32.760Z,17.79
2024-02-11T07:34:45.225Z,17.88
2024-02-11T07:38:57.770Z,17.88
2024-02-11T07:43:11.282Z,17.84
2024-02-11T07:47:26.553Z,17.93
2024-02-11T07:51:44.309Z,17.93
2024-02-11T07:55:56.692Z,18.03
2024-02-11T08:00:09.484Z,18.01
2024-02-11T08:04:22.054Z,18.09
2024-02-11T08:08:38.806Z,18.05
2024-02-11T08:12:53.946Z,18.06
2024-02-11T08:17:07.272Z,18.07
2024-02-11T08:21:20.968Z,18.06
2024-02-11T08:25:33.878Z,18.18
2024-02-11T08:29:49.047Z,18.32
2024-02-11T08:34:02.370Z,18.19
2024-02-11T08:38:15.484Z,18.08
2024-02-11T08:42:30.854Z,17.88
2024-02-11T08:46:43.262Z,17.98
2024-02-11T08:50:56.201Z,17.78
2024-02-11T08:55:09.241Z,17.87
2024-02-11T08:59:21.726Z,18.08
2024-02-11T09:03:34.163Z,18.18
2024-02-11T09:07:48.208Z,17.84
2024-02-11T09:12:01.116Z,17.95
2024-02-11T09:16:13.909Z,17.97
2024-02-11T09:20:26.436Z,17.99
2024-02-11T09:24:42.689Z,18.13
2024-02-11T09:28:55.834Z,17.69
2024-02-11T09:33:08.288Z,17.50
2024-02-11T09:37:20.656Z,17.11
2024-02-11T09:41:34.491Z,15.51
2024-02-11T09:45:49.011Z,14.81
2024-02-11T09:50:05.656Z,15.22
2024-02-11T09:54:20.024Z,15.64
2024-02-11T09:58:34.683Z,15.47
2024-02-11T10:02:50.471Z,14.69
2024-02-11T10:07:05.267Z,14.02
2024-02-11T10:11:20.354Z,14.39
2024-02-11T10:15:39.910Z,14.99
2024-02-11T10:19:52.938Z,14.90
2024-02-11T10:24:05.570Z,15.06
2024-02-11T10:28:19.134Z,15.31
2024-02-11T10:32:36.899Z,14.59
2024-02-11T10:36:55.125Z,14.55
2024-02-11T10:41:08.250Z,14.67
2024-02-11T10:45:20.764Z,14.71
2024-02-11T10:49:33.509Z,14.33
2024-02-11T10:53:50.065Z,14.46
2024-02-11T10:58:05.333Z,14.71
2024-02-11T11:02:18.128Z,14.52
2024-02-11T11:06:33.386Z,14.37
2024-02-11T11:10:45.792Z,15.04
2024-02-11T11:14:59.256Z,15.27
2024-02-11T11:19:16.822Z,16.08
2024-02-11T11:23:30.010Z,16.36
2024-02-11T11:27:42.397Z,16.85
2024-02-11T11:31:57.530Z,17.50
2024-02-11T11:36:10.212Z,17.30
2024-02-11T11:40:24.430Z,17.36
2024-02-11T11:44:36.772Z,17.96
2024-02-11T11:48:49.224Z,17.99
2024-02-11T11:53:02.721Z,17.73
2024-02-11T11:57:15.243Z,17.96
2024-02-11T12:01:27.584Z,18.22
2024-02-11T12:05:43.530Z,17.88
2024-02-11T12:09:55.920Z,17.92
2024-02-11T12:14:10.659Z,17.29
2024-02-11T12:18:24.526Z,17.47
2024-02-11T12:22:37.549Z,16.84
2024-02-11T12:26:50.156Z,17.41
2024-02-11T12:31:20.976Z,18.36
2024-02-11T12:35:37.583Z,17.70
2024-02-11T12:39:50.130Z,17.05
2024-02-11T12:44:06.580Z,16.63
2024-02-11T12:48:19.116Z,16.52
2024-02-11T12:52:35.499Z,15.89
2024-02-11T12:56:47.874Z,14.11
2024-02-11T13:01:01.254Z,13.78
2024-02-11T13:05:17.643Z,14.46
2024-02-11T13:09:33.421Z,14.93
2024-02-11T13:13:47.665Z,15.37
2024-02-11T13:18:00.313Z,16.02
2024-02-11T13:22:15.782Z,16.29
2024-02-11T13:26:28.637Z,16.36
2024-02-11T13:30:42.606Z,16.29
2024-02-11T13:34:55.144Z,16.08
2024-02-11T13:39:07.577Z,15.57
2024-02-11T13:43:20.774Z,15.53
2024-02-11T13:47:36.275Z,15.78
2024-02-11T13:51:49.994Z,15.75
2024-02-11T13:56:02.505Z,15.65
2024-02-11T14:00:17.329Z,15.85
2024-02-11T14:04:35.115Z,15.75
2024-02-11T14:08:47.777Z,15.89
2024-02-11T14:13:04.981Z,16.07
2024-02-11T14:17:17.507Z,15.89
2024-02-11T14:21:29.850Z,15.96
2024-02-11T14:25:43.646Z,16.26
2024-02-11T14:29:55.981Z,16.44
2024-02-11T14:34:10.018Z,16.55
2024-02-11T14:38:22.715Z,16.92
2024-02-11T14:42:34.982Z,17.06
2024-02-11T14:46:47.970Z,16.68
2024-02-11T14:51:00.964Z,16.61
2024-02-11T14:55:14.408Z,16.38
2024-02-11T14:59:30.015Z,16.36
2024-02-11T15:03:44.202Z,16.72
2024-02-11T15:07:57.252Z,16.54
2024-02-11T15:12:11.244Z,16.72
2024-02-11T15:16:23.863Z,16.65
2024-02-11T15:20:36.687Z,16.62
2024-02-11T15:24:50.283Z,16.53
2024-02-11T15:29:02.758Z,16.62
2024-02-11T15:33:15.582Z,16.59
2024-02-11T15:37:28.409Z,16.30
2024-02-11T15:41:42.750Z,16.45
2024-02-11T15:45:55.136Z,15.98
2024-02-11T15:50:11.004Z,16.11
2024-02-11T15:54:23.842Z,15.70
2024-02-11T15:58:36.625Z,15.87
2024-02-11T16:02:49.209Z,15.67
2024-02-11T16:07:04.082Z,15.79
2024-02-11T16:11:16.748Z,15.62
2024-02-11T16:15:30.906Z,15.38
2024-02-11T16:19:43.508Z,15.30
2024-02-11T16:23:55.945Z,15.16
2024-02-11T16:28:08.579Z,15.16
2024-02-11T16:32:24.414Z,15.11
2024-02-11T16:36:38.873Z,15.10
2024-02-11T16:40:51.337Z,15.04
2024-02-11T16:45:04.169Z,15.27
2024-02-11T16:49:16.639Z,15.23
2024-02-11T16:53:29.700Z,15.18
2024-02-11T16:57:42.284Z,15.18
2024-02-11T17:01:56.899Z,15.20
2024-02-11T17:06:16.063Z,15.09
2024-02-11T17:10:28.866Z,15.03
2024-02-11T17:14:44.604Z,14.92
2024-02-11T17:18:57.986Z,14.93
2024-02-11T17:23:11.354Z,14.86
2024-02-11T17:27:23.947Z,14.81
2024-02-11T17:31:43.649Z,14.80
2024-02-11T17:35:59.843Z,14.74
2024-02-11T17:40:12.983Z,14.67
2024-02-11T17:44:25.588Z,14.65
2024-02-11T17:48:39.702Z,14.57
2024-02-11T17:52:52.209Z,14.38
2024-02-11T17:57:04.914Z,12.96
2024-02-11T18:01:18.875Z,11.56
2024-02-11T18:05:31.716Z,11.73
2024-02-11T18:09:44.424Z,11.24
2024-02-11T18:13:57.190Z,11.24
2024-02-11T18:18:09.577Z,11.23
2024-02-11T18:22:22.143Z,11.08
2024-02-11T18:26:34.636Z,10.79
2024-02-11T18:30:47.259Z,10.76
2024-02-11T18:35:00.341Z,10.71
2024-02-11T18:39:16.045Z,10.73
2024-02-11T18:43:28.555Z,10.76
2024-02-11T18:47:41.080Z,10.72
2024-02-11T18:51:53.654Z,10.86
2024-02-11T18:56:08.250Z,10.77
2024-02-11T19:00:21.946Z,10.83
2024-02-11T19:04:34.710Z,10.83
2024-02-11T19:08:47.251Z,10.81
2024-02-11T19:12:59.578Z,10.75
2024-02-11T19:17:15.041Z,10.74
2024-02-11T19:21:27.612Z,10.77
2024-02-11T19:25:40.112Z,10.58
2024-02-11T19:29:52.379Z,10.65
2024-02-11T19:34:05.881Z,10.63
2024-02-11T19:38:20.735Z,10.48
2024-02-11T19:42:33.884Z,10.01
2024-02-11T19:46:46.346Z,10.31
2024-02-11T19:51:02.242Z,10.53
2024-02-11T19:55:15.175Z,10.46
2024-02-11T19:59:27.827Z,10.33
2024-02-11T20:03:41.124Z,10.53
2024-02-11T20:07:57.126Z,10.61
2024-02-11T20:12:10.411Z,10.49
2024-02-11T20:16:22.872Z,10.60
2024-02-11T20:20:36.623Z,10.58
2024-02-11T20:24:49.055Z,10.44
2024-02-11T20:29:01.546Z,10.28
2024-02-11T20:33:15.196Z,10.57
2024-02-11T20:37:27.672Z,10.60
2024-02-11T20:41:41.432Z,10.11
2024-02-11T20:45:54.193Z,10.44
2024-02-11T20:50:08.648Z,10.51
2024-02-11T20:54:21.209Z,10.46
2024-02-11T20:58:35.016Z,10.52
2024-02-11T21:02:47.691Z,10.45
2024-02-11T21:07:00.995Z,9.59
2024-02-11T21:11:13.733Z,10.40
2024-02-11T21:15:26.541Z,10.57
2024-02-11T21:19:38.903Z,10.74
2024-02-11T21:23:51.873Z,10.79
2024-02-11T21:28:04.418Z,10.81
2024-02-11T21:32:17.757Z,10.98
2024-02-11T21:36:30.260Z,11.08
2024-02-11T21:40:43.587Z,11.10
2024-02-11T21:44:55.996Z,11.01
2024-02-11T21:49:11.189Z,11.03
2024-02-11T21:53:23.665Z,10.82
2024-02-11T21:57:36.080Z,10.67
2024-02-11T22:01:49.695Z,10.53
2024-02-11T22:06:02.307Z,10.73
2024-02-11T22:10:14.804Z,10.75
2024-02-11T22:14:27.168Z,10.58
2024-02-11T22:18:39.588Z,10.75
2024-02-11T22:22:53.416Z,10.72
2024-02-11T22:27:07.418Z,10.72
2024-02-11T22:31:20.039Z,10.81
2024-02-11T22:35:33.987Z,10.87
2024-02-11T22:39:49.116Z,10.79
2024-02-11T22:44:03.464Z,10.73
2024-02-11T22:48:16.022Z,10.75
2024-02-11T22:52:29.600Z,10.82
2024-02-11T22:56:43.408Z,10.84
2024-02-11T23:00:56.495Z,10.71
2024-02-11T23:05:09.244Z,10.63
2024-02-11T23:09:24.166Z,10.53
2024-02-11T23:13:36.524Z,10.47
2024-02-11T23:17:50.546Z,10.48
2024-02-11T23:22:06.273Z,10.52
2024-02-11T23:26:18.909Z,10.51
2024-02-11T23:30:31.715Z,10.47
2024-02-11T23:34:44.078Z,10.42
2024-02-11T23:38:56.564Z,10.31
2024-02-11T23:43:10.335Z,10.44
2024-02-11T23:47:23.182Z,10.35
2024-02-11T23:51:35.822Z,10.50
2024-02-11T23:55:50.968Z,10.56
